Time;durP1;ratioP1;P1;durP2;ratioP2;P2;SDS_P1;SDS_P2;PMS_P1;PMS_P2;Temp;Humidity;BMP_temperature;BMP_pressure;BME280_temperature;BME280_humidity;BME280_pressure;Samples;Min_cycle;Max_cycle;Signal;HPM_P1;HPM_P2
2023/06/24 00:00:18;;;;;;;3.35;2.30;;;15.20;86.20;;;;;;21157952;28;20329;-52
2023/06/24 00:10:22;;;;;;;6.50;2.63;;;15.10;85.80;;;;;;21139153;28;20488;-50
2023/06/24 00:20:23;;;;;;;2.90;2.33;;;15.30;85.60;;;;;;21157014;28;20529;-51
2023/06/24 00:30:26;;;;;;;4.30;2.60;;;15.30;86.10;;;;;;21155877;28;20039;-51
2023/06/24 00:40:28;;;;;;;3.15;2.35;;;15.20;86.80;;;;;;21136711;28;20044;-46
2023/06/24 00:50:29;;;;;;;4.65;2.38;;;15.20;86.30;;;;;;21156008;28;20116;-51
2023/06/24 01:00:34;;;;;;;4.68;2.42;;;15.10;87.00;;;;;;21153223;28;20032;-48
2023/06/24 01:10:35;;;;;;;4.07;2.08;;;15.00;88.00;;;;;;21134463;28;20477;-49
2023/06/24 01:20:58;;;;;;;2.38;1.95;;;14.70;89.30;;;;;;21152345;28;20035;-52
2023/06/24 01:31:19;;;;;;;3.35;2.03;;;14.70;90.20;;;;;;21151221;28;20035;-46
2023/06/24 01:41:24;;;;;;;3.33;2.10;;;14.80;90.00;;;;;;21165239;27;20104;-54
2023/06/24 01:51:27;;;;;;;4.22;2.17;;;14.90;89.20;;;;;;21132116;28;20373;-53
2023/06/24 02:01:31;;;;;;;2.67;2.03;;;15.10;88.30;;;;;;21149283;28;20088;-50
2023/06/24 02:11:35;;;;;;;2.72;1.92;;;15.20;88.00;;;;;;21144392;28;20054;-51
2023/06/24 02:21:40;;;;;;;3.80;1.90;;;15.20;88.50;;;;;;21147855;28;20481;-50
2023/06/24 02:31:41;;;;;;;3.55;1.85;;;14.80;90.00;;;;;;21147563;28;20096;-51
2023/06/24 02:41:44;;;;;;;4.63;1.58;;;14.60;90.50;;;;;;21147061;28;20101;-55
2023/06/24 02:51:46;;;;;;;1.95;1.50;;;14.20;91.40;;;;;;21147045;28;20054;-53
2023/06/24 03:01:49;;;;;;;2.03;1.30;;;14.00;91.30;;;;;;21127876;28;20061;-47
2023/06/24 03:11:51;;;;;;;2.35;1.25;;;14.20;91.40;;;;;;21127839;28;20027;-54
2023/06/24 03:22:03;;;;;;;1.67;1.08;;;14.20;91.00;;;;;;21127918;28;20032;-52
2023/06/24 03:32:05;;;;;;;1.48;0.90;;;14.10;91.60;;;;;;21139110;28;20027;-51
2023/06/24 03:42:07;;;;;;;1.60;1.00;;;14.10;91.50;;;;;;21141787;28;20069;-51
2023/06/24 03:52:09;;;;;;;2.13;0.90;;;14.30;91.00;;;;;;21141211;28;20044;-52
2023/06/24 04:02:13;;;;;;;2.10;0.80;;;14.10;92.00;;;;;;21141329;28;20176;-52
2023/06/24 04:12:15;;;;;;;0.90;0.60;;;14.20;91.90;;;;;;21139117;28;20465;-53
2023/06/24 04:22:17;;;;;;;0.82;0.60;;;14.10;92.50;;;;;;21122447;28;20031;-52
2023/06/24 04:32:18;;;;;;;0.70;0.50;;;14.10;92.50;;;;;;21137692;28;20486;-50
2023/06/24 04:42:20;;;;;;;1.02;0.70;;;14.10;92.30;;;;;;21154301;28;20108;-53
2023/06/24 04:52:23;;;;;;;0.77;0.47;;;14.20;92.50;;;;;;21136257;28;20032;-51
2023/06/24 05:02:25;;;;;;;1.75;0.40;;;14.10;92.40;;;;;;21153467;28;20050;-48
2023/06/24 05:12:27;;;;;;;2.15;0.40;;;14.30;92.50;;;;;;21152308;28;20170;-48
2023/06/24 05:22:28;;;;;;;1.25;0.40;;;14.50;92.10;;;;;;21152799;28;20036;-50
2023/06/24 05:32:30;;;;;;;0.50;0.40;;;14.60;92.30;;;;;;21132564;28;20039;-53
2023/06/24 05:42:31;;;;;;;0.60;0.43;;;14.70;91.70;;;;;;21150703;28;20353;-46
2023/06/24 05:52:33;;;;;;;0.38;0.28;;;15.00;91.30;;;;;;21149663;28;20036;-52
2023/06/24 06:02:34;;;;;;;0.40;0.30;;;15.10;91.80;;;;;;21148924;28;20057;-50
2023/06/24 06:12:36;;;;;;;3.20;0.30;;;15.20;91.80;;;;;;21146373;28;20422;-44
2023/06/24 06:22:38;;;;;;;0.30;0.30;;;17.50;88.50;;;;;;21148357;28;20024;-51
2023/06/24 06:32:39;;;;;;;0.73;0.40;;;19.70;82.60;;;;;;21145607;28;20027;-52
2023/06/24 06:42:42;;;;;;;0.95;0.47;;;20.40;83.40;;;;;;21146923;28;20055;-47
2023/06/24 06:52:43;;;;;;;0.60;0.40;;;20.90;79.70;;;;;;21146871;28;20044;-49
2023/06/24 07:02:45;;;;;;;1.73;0.50;;;20.70;81.30;;;;;;21153767;28;20040;-48
2023/06/24 07:12:47;;;;;;;2.08;0.40;;;20.30;80.70;;;;;;21156395;28;20049;-52
2023/06/24 07:22:48;;;;;;;0.70;0.40;;;20.60;80.10;;;;;;21162247;28;20465;-50
2023/06/24 07:32:50;;;;;;;0.20;0.20;;;21.10;79.40;;;;;;21158982;28;20035;-49
2023/06/24 07:42:53;;;;;;;0.77;0.40;;;20.60;80.20;;;;;;21160087;28;20044;-49
2023/06/24 07:52:54;;;;;;;0.57;0.40;;;21.20;79.60;;;;;;21158333;28;20120;-56
2023/06/24 08:02:58;;;;;;;2.78;0.50;;;21.60;80.30;;;;;;21138983;28;20394;-52
2023/06/24 08:12:59;;;;;;;0.73;0.45;;;20.60;82.50;;;;;;21152210;28;20047;-53
2023/06/24 08:23:01;;;;;;;1.08;0.60;;;20.80;82.20;;;;;;21156558;28;20047;-47
2023/06/24 08:33:03;;;;;;;0.68;0.40;;;21.00;83.20;;;;;;21156154;28;20031;-49
2023/06/24 08:43:06;;;;;;;0.70;0.40;;;21.50;79.70;;;;;;21149504;28;20089;-54
2023/06/24 08:53:08;;;;;;;0.63;0.50;;;21.80;80.50;;;;;;21153923;28;20031;-52
2023/06/24 09:03:10;;;;;;;2.35;1.13;;;22.00;81.10;;;;;;21151695;28;20263;-48
2023/06/24 09:13:12;;;;;;;1.50;0.43;;;22.20;79.30;;;;;;21153971;28;20322;-50
2023/06/24 09:23:14;;;;;;;0.20;0.20;;;22.20;77.20;;;;;;21151925;28;20035;-50
2023/06/24 09:33:21;;;;;;;0.40;0.30;;;22.40;80.30;;;;;;21151089;28;20036;-49
2023/06/24 09:43:23;;;;;;;0.93;0.30;;;22.10;77.80;;;;;;21150632;28;20073;-49
2023/06/24 09:53:25;;;;;;;2.45;0.30;;;21.70;78.00;;;;;;21144778;28;20093;-55
2023/06/24 10:03:36;;;;;;;0.70;0.30;;;22.00;81.90;;;;;;21147996;28;20023;-55
2023/06/24 10:13:38;;;;;;;1.20;0.43;;;23.60;81.00;;;;;;21149185;28;20032;-55
2023/06/24 10:23:48;;;;;;;0.40;0.30;;;23.30;76.40;;;;;;21149071;28;20080;-49
2023/06/24 10:33:53;;;;;;;0.65;0.40;;;23.10;76.80;;;;;;21149294;28;20042;-55
2023/06/24 10:43:57;;;;;;;0.40;0.40;;;23.50;78.50;;;;;;21166005;28;20052;-47
2023/06/24 10:53:58;;;;;;;2.05;0.40;;;24.50;78.60;;;;;;21165122;28;20028;-49
2023/06/24 11:04:05;;;;;;;0.35;0.30;;;25.70;76.90;;;;;;21164431;28;20061;-55
2023/06/24 11:14:07;;;;;;;0.30;0.30;;;26.30;70.40;;;;;;21163392;28;20508;-52
2023/06/24 11:24:10;;;;;;;1.50;1.20;;;25.60;80.90;;;;;;21163257;28;20516;-54
2023/06/24 11:34:12;;;;;;;2.83;1.60;;;27.10;78.90;;;;;;21157489;28;20028;-54
2023/06/24 11:44:14;;;;;;;3.22;2.17;;;27.60;83.20;;;;;;21160200;28;20092;-56
2023/06/24 11:54:20;;;;;;;6.57;2.78;;;28.40;83.50;;;;;;21156352;28;20031;-55
2023/06/24 12:04:28;;;;;;;6.83;2.77;;;27.80;82.70;;;;;;21156767;28;20366;-54
2023/06/24 12:14:29;;;;;;;6.00;3.28;;;27.90;85.70;;;;;;21157513;28;20485;-50
2023/06/24 12:24:31;;;;;;;4.82;3.22;;;28.10;85.60;;;;;;21157952;28;20024;-52
2023/06/24 12:34:33;;;;;;;3.58;2.70;;;28.40;85.90;;;;;;21157007;28;20027;-56
2023/06/24 12:44:35;;;;;;;7.15;2.90;;;28.50;83.90;;;;;;21151989;28;20085;-56
2023/06/24 12:54:36;;;;;;;4.47;2.83;;;29.10;82.80;;;;;;21154998;28;20361;-52
2023/06/24 13:04:38;;;;;;;4.75;2.80;;;29.00;81.90;;;;;;21154167;27;20031;-54
2023/06/24 13:14:39;;;;;;;2.90;2.53;;;29.10;81.00;;;;;;21153704;28;20038;-56
2023/06/24 13:24:41;;;;;;;6.32;3.03;;;29.20;83.20;;;;;;21153566;28;20471;-54
2023/06/24 13:34:42;;;;;;;2.70;2.50;;;29.30;80.30;;;;;;21151443;28;20035;-48
2023/06/24 13:44:44;;;;;;;4.07;2.92;;;29.10;83.40;;;;;;21151737;28;20186;-56
2023/06/24 13:54:46;;;;;;;8.93;2.78;;;29.20;83.70;;;;;;21151079;28;20036;-53
2023/06/24 14:04:48;;;;;;;6.55;2.72;;;28.90;82.20;;;;;;21148363;28;20028;-57
2023/06/24 14:14:50;;;;;;;3.08;2.78;;;29.40;81.30;;;;;;21144853;28;20077;-54
2023/06/24 14:24:53;;;;;;;4.80;2.35;;;29.70;77.80;;;;;;21131093;28;20055;-54
2023/06/24 14:34:55;;;;;;;3.50;2.60;;;28.50;80.00;;;;;;21148606;28;20400;-53
2023/06/24 14:44:57;;;;;;;5.97;2.85;;;29.10;79.70;;;;;;21130206;28;20052;-56
2023/06/24 14:54:58;;;;;;;3.33;2.70;;;30.10;78.30;;;;;;21147763;28;20035;-53
2023/06/24 15:05:01;;;;;;;3.15;2.50;;;30.80;76.80;;;;;;21144667;28;20061;-53
2023/06/24 15:15:03;;;;;;;3.00;2.22;;;31.10;78.50;;;;;;21143119;28;20035;-54
2023/06/24 15:25:06;;;;;;;3.28;2.53;;;31.00;76.20;;;;;;21156760;28;20834;-55
2023/06/24 15:35:08;;;;;;;3.17;2.20;;;30.70;76.40;;;;;;21160656;28;20111;-53
2023/06/24 15:45:10;;;;;;;3.22;2.15;;;28.10;77.40;;;;;;21157892;28;20074;-52
2023/06/24 15:55:11;;;;;;;3.10;2.03;;;25.70;84.70;;;;;;21138781;28;20035;-52
2023/06/24 16:05:13;;;;;;;3.28;2.08;;;24.40;84.90;;;;;;21138962;27;20472;-50
2023/06/24 16:15:15;;;;;;;1.95;1.70;;;24.10;87.90;;;;;;21155349;28;20031;-49
2023/06/24 16:25:16;;;;;;;2.92;1.80;;;23.90;87.60;;;;;;21156377;28;20104;-55
2023/06/24 16:35:18;;;;;;;2.08;1.73;;;23.90;88.60;;;;;;21149874;28;20088;-50
2023/06/24 16:45:20;;;;;;;3.30;1.77;;;23.80;89.30;;;;;;21152212;28;20055;-51
2023/06/24 16:55:22;;;;;;;2.05;1.70;;;23.60;90.30;;;;;;21153797;28;20031;-51
2023/06/24 17:05:23;;;;;;;4.18;1.92;;;23.50;90.90;;;;;;21153523;28;20028;-50
2023/06/24 17:15:25;;;;;;;4.00;1.77;;;23.40;90.00;;;;;;21149727;28;20085;-54
2023/06/24 17:25:26;;;;;;;3.63;1.80;;;22.90;90.70;;;;;;21149457;28;20557;-51
2023/06/24 17:35:28;;;;;;;4.63;2.60;;;22.40;91.60;;;;;;21128493;28;20085;-49
2023/06/24 17:45:29;;;;;;;4.78;2.88;;;21.90;93.10;;;;;;21150429;28;20048;-46
2023/06/24 17:55:32;;;;;;;5.82;3.25;;;21.40;93.50;;;;;;21150297;28;20031;-52
2023/06/24 18:05:33;;;;;;;4.38;3.22;;;21.00;93.40;;;;;;21150126;28;20035;-49
2023/06/24 18:15:35;;;;;;;6.93;3.42;;;20.70;94.60;;;;;;21149332;28;20179;-50
2023/06/24 18:25:36;;;;;;;4.47;3.20;;;20.30;95.30;;;;;;21148690;28;20392;-47
2023/06/24 18:35:38;;;;;;;6.20;3.88;;;19.90;95.20;;;;;;21148703;28;20032;-52
2023/06/24 18:45:39;;;;;;;5.20;3.25;;;19.60;96.00;;;;;;21084917;28;20108;-49
2023/06/24 18:55:41;;;;;;;5.03;2.90;;;19.20;95.90;;;;;;21043151;28;20039;-52
2023/06/24 19:05:43;;;;;;;4.90;3.35;;;18.70;96.60;;;;;;21076554;28;20093;-47
2023/06/24 19:15:44;;;;;;;8.82;5.15;;;18.00;97.80;;;;;;21077454;28;20043;-49
2023/06/24 19:25:47;;;;;;;6.82;3.10;;;17.40;98.80;;;;;;21078621;28;20032;-51
2023/06/24 19:35:48;;;;;;;3.83;3.00;;;16.80;99.60;;;;;;21076961;28;20097;-55
2023/06/24 19:45:50;;;;;;;5.80;3.05;;;16.30;99.90;;;;;;21124385;28;20562;-51
2023/06/24 19:55:52;;;;;;;5.43;3.75;;;15.90;99.90;;;;;;21135241;28;20035;-49
2023/06/24 20:05:53;;;;;;;7.10;4.10;;;15.60;99.90;;;;;;21128580;28;20027;-52
2023/06/24 20:15:55;;;;;;;6.15;4.53;;;15.50;99.90;;;;;;21138963;28;20484;-49
2023/06/24 20:25:56;;;;;;;7.03;3.97;;;15.20;99.90;;;;;;21140592;28;20073;-50
2023/06/24 20:35:58;;;;;;;7.82;4.50;;;15.00;99.90;;;;;;21134322;28;20054;-47
2023/06/24 20:46:00;;;;;;;6.75;4.57;;;14.90;99.90;;;;;;21118352;28;20428;-53
2023/06/24 20:56:01;;;;;;;6.88;4.63;;;14.70;99.90;;;;;;21135785;28;20027;-49
2023/06/24 21:06:04;;;;;;;5.15;3.78;;;14.60;99.90;;;;;;21109869;28;20031;-49
2023/06/24 21:16:06;;;;;;;6.60;4.13;;;14.60;99.90;;;;;;21124050;28;20388;-53
2023/06/24 21:26:07;;;;;;;7.75;4.80;;;14.50;99.90;;;;;;21124316;28;20080;-50
2023/06/24 21:36:09;;;;;;;5.40;3.58;;;14.50;99.90;;;;;;21133816;28;20031;-51
2023/06/24 21:46:11;;;;;;;6.82;4.30;;;14.60;99.90;;;;;;21129171;28;20047;-48
2023/06/24 21:56:13;;;;;;;7.78;3.72;;;14.40;99.90;;;;;;21128107;28;20061;-48
2023/06/24 22:06:14;;;;;;;5.22;3.60;;;14.40;99.90;;;;;;21126918;28;20081;-49
2023/06/24 22:16:16;;;;;;;6.13;3.90;;;14.40;99.90;;;;;;21126630;28;20043;-49
2023/06/24 22:26:18;;;;;;;5.55;4.05;;;14.20;99.90;;;;;;21133411;28;20030;-53
2023/06/24 22:36:19;;;;;;;5.55;3.83;;;14.00;99.90;;;;;;21135642;28;20077;-51
2023/06/24 22:46:21;;;;;;;6.63;4.40;;;13.90;99.90;;;;;;21124154;28;20048;-49
2023/06/24 22:56:23;;;;;;;6.47;4.32;;;13.80;99.90;;;;;;21136713;28;20028;-49
2023/06/24 23:06:25;;;;;;;5.63;3.92;;;13.70;99.90;;;;;;21128521;28;20035;-52
2023/06/24 23:16:27;;;;;;;6.65;5.20;;;13.50;99.90;;;;;;21131915;28;20044;-49
2023/06/24 23:26:29;;;;;;;7.00;4.50;;;13.40;99.90;;;;;;21127739;28;20489;-46
2023/06/24 23:36:32;;;;;;;5.60;4.45;;;13.40;99.90;;;;;;21130712;28;20028;-49
2023/06/24 23:46:35;;;;;;;6.70;4.35;;;13.40;99.90;;;;;;21138823;28;20447;-54
2023/06/24 23:56:36;;;;;;;7.55;4.50;;;13.40;99.90;;;;;;21141390;28;20163;-52
